Time;durP1;ratioP1;P1;durP2;ratioP2;P2;SDS_P1;SDS_P2;PMS_P1;PMS_P2;Temp;Humidity;BMP_temperature;BMP_pressure;BME280_temperature;BME280_humidity;BME280_pressure;Samples;Min_cycle;Max_cycle;Signal;HPM_P1;HPM_P2
2021/01/08 00:01:11;;;;;;;18.55;11.90;;;;;;;0.65;93.06;99106.05;1770860;81;21072;-60
2021/01/08 00:03:40;;;;;;;16.90;11.85;;;;;;;0.66;93.10;99102.21;1771034;79;21184;-60
2021/01/08 00:06:08;;;;;;;16.30;11.75;;;;;;;0.67;93.10;99105.19;1770615;79;21152;-60
2021/01/08 00:08:36;;;;;;;13.68;10.50;;;;;;;0.68;93.00;99106.05;1771110;81;21141;-59
2021/01/08 00:11:06;;;;;;;14.40;10.13;;;;;;;0.69;92.69;99118.86;1770975;81;21058;-60
2021/01/08 00:13:34;;;;;;;12.73;8.85;;;;;;;0.68;92.36;99111.16;1771011;81;21076;-59
2021/01/08 00:16:02;;;;;;;12.00;9.40;;;;;;;0.67;92.03;99114.14;1770590;81;22261;-60
2021/01/08 00:18:30;;;;;;;12.30;9.70;;;;;;;0.66;91.86;99112.44;1770860;81;21066;-60
2021/01/08 00:20:58;;;;;;;13.18;10.35;;;;;;;0.66;91.69;99114.15;1770886;81;21129;-60
2021/01/08 00:23:26;;;;;;;14.03;10.18;;;;;;;0.67;91.54;99114.14;1770930;81;21117;-60
2021/01/08 00:25:54;;;;;;;13.85;10.55;;;;;;;0.69;91.48;99112.89;1771067;81;21089;-60
2021/01/08 00:28:22;;;;;;;15.95;12.07;;;;;;;0.72;91.39;99110.33;1770936;81;21191;-60
2021/01/08 00:30:49;;;;;;;15.08;10.20;;;;;;;0.72;91.13;99111.18;1770902;81;21082;-60
2021/01/08 00:33:17;;;;;;;14.80;10.35;;;;;;;0.70;91.08;99110.77;1771042;81;21196;-60
2021/01/08 00:35:45;;;;;;;14.47;10.28;;;;;;;0.68;91.15;99109.48;1770967;81;21172;-60
2021/01/08 00:38:13;;;;;;;13.43;10.28;;;;;;;0.70;91.17;99103.94;1770882;81;21062;-59
2021/01/08 00:40:41;;;;;;;14.75;10.43;;;;;;;0.71;91.21;99108.20;1771120;79;21190;-60
2021/01/08 00:43:08;;;;;;;11.97;9.70;;;;;;;0.72;91.21;99106.49;1770902;81;21165;-60
2021/01/08 00:45:36;;;;;;;14.73;10.13;;;;;;;0.71;91.11;99115.88;1770959;79;21141;-60
2021/01/08 00:48:06;;;;;;;14.07;10.50;;;;;;;0.72;91.18;99116.72;1771033;81;21086;-60
2021/01/08 00:50:34;;;;;;;12.10;9.83;;;;;;;0.72;91.29;99119.28;1771154;79;21479;-60
2021/01/08 00:53:02;;;;;;;13.32;10.05;;;;;;;0.74;91.34;99115.86;1770856;81;21197;-60
2021/01/08 00:55:30;;;;;;;14.78;10.00;;;;;;;0.74;91.14;99121.41;1770864;81;21090;-59
2021/01/08 00:57:59;;;;;;;13.30;10.03;;;;;;;0.71;91.09;99126.53;1770026;81;21075;-60
2021/01/08 01:00:28;;;;;;;11.75;8.88;;;;;;;0.70;91.10;99128.67;1738785;81;21209;-60
2021/01/08 01:02:56;;;;;;;11.73;8.93;;;;;;;0.68;91.29;99128.67;1770885;81;21129;-60
2021/01/08 01:05:24;;;;;;;11.48;8.78;;;;;;;0.67;91.35;99135.89;1770855;81;21201;-59
2021/01/08 01:07:52;;;;;;;11.75;9.30;;;;;;;0.66;91.46;99138.02;1770880;81;21077;-59
2021/01/08 01:10:20;;;;;;;12.50;9.43;;;;;;;0.63;91.43;99136.75;1770863;81;21161;-60
2021/01/08 01:12:48;;;;;;;13.75;9.05;;;;;;;0.64;91.60;99138.45;1770989;81;21145;-60
2021/01/08 01:15:17;;;;;;;13.62;9.18;;;;;;;0.66;91.58;99135.89;1770830;81;21154;-59
2021/01/08 01:17:46;;;;;;;13.78;9.98;;;;;;;0.67;91.59;99126.94;1770933;81;21148;-60
2021/01/08 01:20:15;;;;;;;12.95;9.28;;;;;;;0.68;91.69;99135.06;1770852;79;21081;-59
2021/01/08 01:22:44;;;;;;;12.75;9.55;;;;;;;0.69;91.75;99142.31;1770977;81;21070;-59
2021/01/08 01:25:13;;;;;;;14.23;9.65;;;;;;;0.68;91.92;99137.63;1770963;81;21038;-59
2021/01/08 01:27:40;;;;;;;11.83;8.63;;;;;;;0.68;92.02;99141.86;1771085;81;21073;-60
2021/01/08 01:30:12;;;;;;;13.18;10.15;;;;;;;0.69;92.23;99136.77;1770896;81;21418;-59
2021/01/08 01:32:39;;;;;;;12.18;9.50;;;;;;;0.70;92.19;99135.06;1771015;81;21527;-60
2021/01/08 01:35:10;;;;;;;14.87;9.95;;;;;;;0.71;92.24;99137.62;1770921;81;21161;-60
2021/01/08 01:37:38;;;;;;;14.80;10.38;;;;;;;0.74;92.31;99129.09;1771060;80;21125;-59
2021/01/08 01:40:07;;;;;;;13.18;9.75;;;;;;;0.74;91.96;99137.61;1770777;81;21185;-60
2021/01/08 01:42:34;;;;;;;14.03;10.05;;;;;;;0.71;91.92;99131.23;1771084;81;21364;-59
2021/01/08 01:45:03;;;;;;;12.03;9.48;;;;;;;0.68;91.79;99140.58;1770856;81;21090;-61
2021/01/08 01:47:31;;;;;;;15.23;9.90;;;;;;;0.66;91.60;99135.89;1771095;81;21058;-59
2021/01/08 01:49:59;;;;;;;14.70;10.35;;;;;;;0.62;91.66;99135.05;1771028;79;21153;-59
2021/01/08 01:52:27;;;;;;;13.88;10.00;;;;;;;0.60;91.87;99130.33;1770978;81;21153;-60
2021/01/08 01:54:55;;;;;;;13.80;10.60;;;;;;;0.63;91.92;99135.90;1770763;81;21201;-59
2021/01/08 01:57:22;;;;;;;14.63;10.58;;;;;;;0.63;91.96;99138.03;1770899;81;21407;-59
2021/01/08 01:59:50;;;;;;;14.45;10.53;;;;;;;0.62;91.82;99135.05;1771026;81;21058;-59
2021/01/08 02:02:36;;;;;;;15.60;10.43;;;;;;;0.62;91.85;99131.64;1770772;79;21133;-59
2021/01/08 02:05:06;;;;;;;12.75;9.75;;;;;;;0.62;91.83;99132.91;1770965;81;21056;-61
2021/01/08 02:07:35;;;;;;;13.28;9.98;;;;;;;0.62;91.86;99136.33;1770933;79;22194;-60
2021/01/08 02:10:05;;;;;;;14.60;10.63;;;;;;;0.59;91.95;99129.91;1770757;81;21101;-62
2021/01/08 02:12:32;;;;;;;14.98;11.30;;;;;;;0.56;92.04;99129.91;1771022;81;21070;-60
2021/01/08 02:15:02;;;;;;;14.93;11.15;;;;;;;0.54;92.00;99134.17;1739020;81;21066;-61
2021/01/08 02:17:30;;;;;;;13.08;10.15;;;;;;;0.52;92.09;99130.73;1735761;81;21137;-59
2021/01/08 02:20:06;;;;;;;14.13;10.38;;;;;;;0.52;92.08;99126.90;1777473;80;22245;-59
2021/01/08 02:22:48;;;;;;;15.10;10.58;;;;;;;0.54;92.01;99125.22;1778800;79;21939;-59
2021/01/08 02:25:21;;;;;;;13.50;9.78;;;;;;;0.53;91.67;99126.08;1776988;80;21129;-59
2021/01/08 02:28:16;;;;;;;12.63;9.90;;;;;;;0.52;90.89;99121.36;1778968;80;21084;-59
2021/01/08 02:30:44;;;;;;;11.75;8.45;;;;;;;0.51;90.79;99132.87;1779292;80;21061;-59
2021/01/08 02:33:12;;;;;;;11.53;8.93;;;;;;;0.51;90.35;99135.00;1748955;80;21214;-60
2021/01/08 02:35:41;;;;;;;11.25;8.03;;;;;;;0.51;89.86;99122.21;1779336;80;21069;-60
2021/01/08 02:38:11;;;;;;;9.75;7.45;;;;;;;0.50;89.24;99129.45;1779337;80;21604;-59
2021/01/08 02:40:38;;;;;;;10.30;7.50;;;;;;;0.49;88.70;99126.91;1749907;80;21133;-59
2021/01/08 02:43:06;;;;;;;10.95;7.83;;;;;;;0.48;88.13;99133.72;1779344;80;21148;-60
2021/01/08 02:45:35;;;;;;;11.33;8.93;;;;;;;0.51;88.25;99139.26;1779369;80;21207;-59
2021/01/08 02:48:04;;;;;;;10.15;8.03;;;;;;;0.52;88.21;99135.84;1779255;80;21093;-59
2021/01/08 02:50:32;;;;;;;12.05;9.08;;;;;;;0.51;88.15;99140.54;1779245;80;21129;-59
2021/01/08 02:53:08;;;;;;;14.00;9.40;;;;;;;0.51;88.48;99146.51;1779415;79;21120;-59
2021/01/08 02:55:36;;;;;;;14.25;10.00;;;;;;;0.53;88.85;99142.70;1779445;79;21105;-59
2021/01/08 02:58:04;;;;;;;13.08;9.33;;;;;;;0.52;89.21;99149.48;1779362;80;21261;-59
2021/01/08 03:00:33;;;;;;;12.63;9.38;;;;;;;0.53;89.36;99142.70;1779282;80;21116;-59
2021/01/08 03:03:01;;;;;;;13.40;10.30;;;;;;;0.55;89.44;99144.83;1779269;80;21054;-59
2021/01/08 03:05:30;;;;;;;13.32;9.18;;;;;;;0.55;89.58;99149.95;1778993;79;21356;-59
2021/01/08 03:07:58;;;;;;;13.98;9.48;;;;;;;0.55;89.86;99153.78;1779334;80;21121;-59
2021/01/08 03:10:26;;;;;;;14.93;9.90;;;;;;;0.51;90.19;99151.62;1749017;80;21211;-59
2021/01/08 03:12:57;;;;;;;14.15;9.58;;;;;;;0.49;90.42;99153.76;1779227;80;21089;-59
2021/01/08 03:15:25;;;;;;;13.88;10.58;;;;;;;0.46;90.68;99147.36;1779293;80;21613;-59
2021/01/08 03:17:54;;;;;;;15.20;10.43;;;;;;;0.44;91.00;99149.89;1779247;80;21121;-59
2021/01/08 03:20:21;;;;;;;15.13;10.70;;;;;;;0.41;91.36;99147.77;1772388;80;21058;-59
2021/01/08 03:22:49;;;;;;;14.83;10.58;;;;;;;0.38;91.58;99149.02;1771171;81;21265;-59
2021/01/08 03:25:18;;;;;;;15.83;11.20;;;;;;;0.35;91.71;99149.02;1770988;81;21117;-59
2021/01/08 03:27:45;;;;;;;16.90;10.90;;;;;;;0.32;91.84;99151.57;1770920;81;21157;-59
2021/01/08 03:30:15;;;;;;;15.43;11.40;;;;;;;0.32;92.08;99151.57;1770839;79;21102;-58
2021/01/08 03:32:42;;;;;;;17.32;12.10;;;;;;;0.31;92.20;99156.26;1771159;81;21136;-58
2021/01/08 03:35:11;;;;;;;17.57;11.97;;;;;;;0.33;92.30;99154.55;1770893;81;21363;-60
2021/01/08 03:37:38;;;;;;;15.38;11.50;;;;;;;0.31;92.14;99160.09;1770973;81;21126;-59
2021/01/08 03:40:08;;;;;;;15.98;12.47;;;;;;;0.27;92.28;99157.50;1771102;81;21155;-59
2021/01/08 03:42:36;;;;;;;18.07;11.73;;;;;;;0.27;92.33;99160.06;1770948;81;21145;-58
2021/01/08 03:45:06;;;;;;;18.00;12.05;;;;;;;0.27;92.42;99157.50;1771061;79;21074;-58
2021/01/08 03:47:34;;;;;;;19.23;12.03;;;;;;;0.28;92.22;99157.08;1771115;81;21648;-58
2021/01/08 03:50:01;;;;;;;19.95;12.78;;;;;;;0.24;92.02;99161.77;1770879;81;21093;-59
2021/01/08 03:52:29;;;;;;;21.65;14.13;;;;;;;0.20;92.06;99155.77;1770832;81;21126;-59
2021/01/08 03:54:57;;;;;;;18.87;13.25;;;;;;;0.17;92.04;99155.77;1771087;81;21152;-58
2021/01/08 03:57:25;;;;;;;19.48;13.88;;;;;;;0.18;92.24;99156.19;1770941;81;21152;-59
2021/01/08 03:59:53;;;;;;;18.82;13.32;;;;;;;0.19;91.96;99154.48;1771005;81;21419;-59
2021/01/08 04:02:20;;;;;;;22.95;14.07;;;;;;;0.18;91.93;99149.80;1770934;81;21492;-59
2021/01/08 04:04:49;;;;;;;22.20;14.40;;;;;;;0.17;91.90;99154.48;1771119;81;21152;-59
2021/01/08 04:07:16;;;;;;;18.90;13.25;;;;;;;0.15;91.99;99151.08;1770901;81;21135;-59
2021/01/08 04:09:44;;;;;;;22.07;13.95;;;;;;;0.16;91.99;99159.17;1771138;81;21099;-59
2021/01/08 04:12:13;;;;;;;18.37;13.13;;;;;;;0.16;92.07;99152.78;1771038;81;21199;-61
2021/01/08 04:14:40;;;;;;;19.52;13.72;;;;;;;0.18;91.96;99156.19;1770922;81;21098;-59
2021/01/08 04:17:08;;;;;;;19.20;13.80;;;;;;;0.17;92.05;99154.48;1770958;81;21117;-59
2021/01/08 04:19:38;;;;;;;20.72;13.98;;;;;;;0.17;92.12;99159.59;1770921;81;21125;-59
2021/01/08 04:22:06;;;;;;;21.37;13.00;;;;;;;0.19;92.09;99152.78;1770867;81;21120;-59
2021/01/08 04:24:34;;;;;;;18.73;12.70;;;;;;;0.19;92.12;99163.01;1770986;81;21469;-59
2021/01/08 04:27:03;;;;;;;21.05;13.38;;;;;;;0.16;92.08;99153.20;1771007;81;21081;-59
2021/01/08 04:29:31;;;;;;;19.85;13.18;;;;;;;0.12;92.19;99152.32;1770697;81;21113;-59
2021/01/08 04:31:58;;;;;;;19.07;13.40;;;;;;;0.10;92.25;99152.75;1770954;81;21133;-59
2021/01/08 04:34:26;;;;;;;20.92;12.75;;;;;;;0.09;92.38;99154.87;1770916;81;21129;-59
2021/01/08 04:36:54;;;;;;;21.07;13.75;;;;;;;0.10;92.47;99150.62;1770908;79;21193;-59
2021/01/08 04:39:22;;;;;;;19.20;13.60;;;;;;;0.13;92.49;99153.17;1770785;81;21074;-60
2021/01/08 04:41:50;;;;;;;18.95;12.95;;;;;;;0.15;92.55;99161.70;1771103;81;21125;-59
2021/01/08 04:44:18;;;;;;;18.77;13.62;;;;;;;0.13;92.53;99150.62;1770791;81;21105;-59
2021/01/08 04:46:47;;;;;;;18.37;12.93;;;;;;;0.13;92.54;99156.58;1770965;81;21134;-58
2021/01/08 04:49:14;;;;;;;19.92;14.30;;;;;;;0.11;92.54;99157.44;1770966;81;21374;-60
2021/01/08 04:51:42;;;;;;;22.52;14.23;;;;;;;0.07;92.65;99155.27;1739096;81;21094;-58
2021/01/08 04:54:10;;;;;;;19.02;13.32;;;;;;;0.09;92.74;99164.25;1714969;81;21054;-59
2021/01/08 04:56:50;;;;;;;20.90;14.07;;;;;;;0.06;92.82;99156.13;1739444;81;21117;-58
2021/01/08 04:59:18;;;;;;;19.32;13.28;;;;;;;0.05;92.85;99158.25;1738815;81;21097;-58
2021/01/08 05:01:46;;;;;;;23.05;14.75;;;;;;;0.04;92.93;99151.43;1770984;81;22224;-58
2021/01/08 05:04:14;;;;;;;23.15;14.38;;;;;;;0.05;92.88;99151.86;1739107;81;21109;-58
2021/01/08 05:06:42;;;;;;;18.82;13.88;;;;;;;0.06;93.01;99153.56;1739706;81;21093;-58
2021/01/08 05:09:09;;;;;;;19.10;13.53;;;;;;;0.09;93.05;99161.27;1770788;81;21133;-59
2021/01/08 05:11:37;;;;;;;18.77;13.70;;;;;;;0.10;92.94;99155.30;1771064;81;21113;-59
2021/01/08 05:14:09;;;;;;;19.70;14.35;;;;;;;0.12;92.95;99157.44;1770972;79;21500;-59
2021/01/08 05:16:39;;;;;;;22.07;13.85;;;;;;;0.14;92.96;99153.17;1770554;81;21149;-59
2021/01/08 05:19:07;;;;;;;20.43;13.83;;;;;;;0.17;92.95;99153.20;1771049;81;21097;-59
2021/01/08 05:21:35;;;;;;;19.77;13.03;;;;;;;0.16;92.86;99155.77;1770754;79;21294;-59
2021/01/08 05:24:04;;;;;;;22.05;14.00;;;;;;;0.14;92.83;99155.73;1738872;81;21057;-59
2021/01/08 05:26:31;;;;;;;24.02;14.65;;;;;;;0.14;92.92;99154.45;1770837;81;21387;-59
2021/01/08 05:29:01;;;;;;;24.72;15.90;;;;;;;0.17;93.00;99154.48;1771004;79;21172;-59
2021/01/08 05:31:32;;;;;;;26.12;16.27;;;;;;;0.19;92.97;99155.77;1770750;81;21133;-59
2021/01/08 05:34:00;;;;;;;25.43;15.58;;;;;;;0.20;93.01;99158.32;1770896;81;21050;-60
2021/01/08 05:36:28;;;;;;;21.75;15.05;;;;;;;0.22;93.01;99163.01;1770917;81;21133;-59
2021/01/08 05:38:59;;;;;;;21.55;15.15;;;;;;;0.24;92.96;99165.17;1770962;81;21316;-59
2021/01/08 05:41:28;;;;;;;21.35;15.18;;;;;;;0.28;93.04;99165.59;1770675;81;21156;-59
2021/01/08 05:43:56;;;;;;;22.22;15.18;;;;;;;0.32;92.97;99160.52;1771033;81;21597;-59
2021/01/08 05:46:27;;;;;;;21.15;14.03;;;;;;;0.36;93.05;99157.96;1770836;81;21141;-60
2021/01/08 05:49:07;;;;;;;23.57;15.50;;;;;;;0.40;92.93;99166.52;1743700;80;21046;-59
2021/01/08 05:51:39;;;;;;;22.27;15.48;;;;;;;0.40;92.73;99161.41;1762656;81;21376;-60
2021/01/08 05:54:07;;;;;;;25.30;15.60;;;;;;;0.40;92.67;99162.68;1753643;81;21149;-59
2021/01/08 05:56:37;;;;;;;21.40;15.50;;;;;;;0.39;92.74;99164.38;1774140;80;21196;-59
2021/01/08 05:59:08;;;;;;;26.60;16.48;;;;;;;0.39;92.75;99164.81;1774357;79;21624;-59
2021/01/08 06:01:37;;;;;;;22.67;15.45;;;;;;;0.39;92.69;99168.64;1754243;81;21162;-59
2021/01/08 06:04:07;;;;;;;22.48;15.78;;;;;;;0.39;92.73;99165.66;1773497;80;21365;-60
2021/01/08 06:06:40;;;;;;;24.37;16.37;;;;;;;0.41;92.84;99169.50;1733576;81;21094;-59
2021/01/08 06:09:12;;;;;;;21.25;15.43;;;;;;;0.41;92.84;99167.80;1774293;80;21102;-59
2021/01/08 06:11:44;;;;;;;25.12;15.98;;;;;;;0.41;92.92;99170.35;1734853;81;21619;-59
2021/01/08 06:14:13;;;;;;;26.52;16.90;;;;;;;0.41;92.80;99172.91;1774454;80;21078;-59
2021/01/08 06:16:46;;;;;;;26.37;16.37;;;;;;;0.39;92.79;99178.87;1774336;80;21169;-59
2021/01/08 06:19:15;;;;;;;25.77;18.02;;;;;;;0.35;92.84;99180.97;1754503;81;21503;-59
2021/01/08 06:21:45;;;;;;;26.73;17.95;;;;;;;0.32;93.04;99177.99;1790542;80;21125;-59
2021/01/08 06:24:24;;;;;;;27.98;17.77;;;;;;;0.32;93.08;99182.25;1773285;81;21066;-59
2021/01/08 06:26:53;;;;;;;26.45;16.40;;;;;;;0.30;93.13;99183.92;1789520;80;21060;-60
2021/01/08 06:29:26;;;;;;;29.00;18.50;;;;;;;0.30;93.27;99189.03;1790985;80;22242;-61
2021/01/08 06:31:57;;;;;;;27.65;18.07;;;;;;;0.27;93.37;99187.33;1773162;81;21090;-59
2021/01/08 06:34:29;;;;;;;32.55;19.40;;;;;;;0.27;93.50;99188.19;1790818;80;21172;-59
2021/01/08 06:37:06;;;;;;;34.00;20.52;;;;;;;0.26;93.53;99194.58;1773370;81;21129;-58
2021/01/08 06:39:45;;;;;;;31.87;19.75;;;;;;;0.24;93.68;99194.58;1791108;80;21062;-59
2021/01/08 06:42:28;;;;;;;29.48;19.10;;;;;;;0.24;93.74;99190.73;1790897;80;21196;-62
2021/01/08 06:44:56;;;;;;;31.70;19.52;;;;;;;0.23;93.83;99196.70;1790957;80;21180;-60
2021/01/08 06:47:24;;;;;;;31.57;19.62;;;;;;;0.23;94.00;99197.12;1773188;80;21491;-61
2021/01/08 06:49:53;;;;;;;32.33;20.30;;;;;;;0.26;94.09;99203.52;1760244;80;21104;-59
2021/01/08 06:52:21;;;;;;;31.33;19.77;;;;;;;0.27;94.07;99206.50;1773368;81;21085;-59
2021/01/08 06:54:58;;;;;;;32.98;20.00;;;;;;;0.27;94.08;99202.67;1790949;80;21201;-58
2021/01/08 06:57:23;;;;;;;32.60;20.68;;;;;;;0.30;94.23;99208.21;1772348;81;21085;-60
2021/01/08 06:59:55;;;;;;;27.20;18.60;;;;;;;0.33;94.37;99209.09;1790939;80;21505;-58
2021/01/08 07:02:25;;;;;;;32.58;20.97;;;;;;;0.37;94.26;99208.67;1790833;80;21088;-61
2021/01/08 07:04:54;;;;;;;32.70;21.48;;;;;;;0.35;94.18;99216.77;1790780;80;21065;-60
2021/01/08 07:07:26;;;;;;;31.20;19.75;;;;;;;0.36;94.19;99215.92;1841757;77;21191;-60
2021/01/08 07:09:57;;;;;;;36.68;22.85;;;;;;;0.37;94.34;99224.02;1773165;81;21074;-61
2021/01/08 07:12:26;;;;;;;52.88;30.77;;;;;;;0.37;94.37;99221.46;1790531;80;21172;-60
2021/01/08 07:14:54;;;;;;;46.90;27.93;;;;;;;0.38;94.46;99228.28;1791075;80;21063;-59
2021/01/08 07:17:32;;;;;;;42.03;26.12;;;;;;;0.39;94.39;99229.59;1790964;80;21077;-59
2021/01/08 07:20:04;;;;;;;36.15;23.18;;;;;;;0.40;94.44;99230.44;1771522;80;21373;-61
2021/01/08 07:22:38;;;;;;;41.75;26.25;;;;;;;0.41;94.51;99229.59;1774352;80;21499;-61
2021/01/08 07:25:12;;;;;;;36.88;24.98;;;;;;;0.42;94.53;99228.74;1774397;80;21169;-60
2021/01/08 07:27:42;;;;;;;34.98;23.10;;;;;;;0.41;94.56;99227.03;1773946;79;21085;-60
2021/01/08 07:30:13;;;;;;;34.60;22.20;;;;;;;0.42;94.54;99235.13;1774447;80;21157;-59
2021/01/08 07:32:51;;;;;;;34.90;22.00;;;;;;;0.43;94.58;99241.95;1762527;81;21368;-60
2021/01/08 07:35:29;;;;;;;40.52;25.37;;;;;;;0.46;94.74;99241.98;1774501;80;21574;-59
2021/01/08 07:38:08;;;;;;;37.70;24.55;;;;;;;0.47;94.66;99237.30;1774401;79;21158;-60
2021/01/08 07:40:40;;;;;;;37.53;23.20;;;;;;;0.47;94.64;99242.41;1774338;80;21149;-59
2021/01/08 07:43:10;;;;;;;35.85;23.57;;;;;;;0.46;94.63;99242.84;1770232;80;21535;-59
2021/01/08 07:46:02;;;;;;;35.40;22.73;;;;;;;0.45;94.77;99244.94;1762625;81;21380;-59
2021/01/08 07:48:38;;;;;;;36.90;23.10;;;;;;;0.50;94.86;99246.25;1774149;80;21137;-59
2021/01/08 07:51:10;;;;;;;36.58;22.87;;;;;;;0.54;94.93;99247.99;1762609;80;21181;-60
2021/01/08 07:53:45;;;;;;;36.53;24.57;;;;;;;0.56;94.84;99250.12;1774296;80;21110;-60
2021/01/08 07:56:16;;;;;;;37.00;22.83;;;;;;;0.58;94.89;99250.98;1762868;81;21200;-60
2021/01/08 07:59:00;;;;;;;48.25;28.55;;;;;;;0.62;94.76;99246.32;1774294;80;22249;-60
2021/01/08 08:01:27;;;;;;;50.35;29.05;;;;;;;0.64;94.66;99259.97;1774190;79;21121;-60
2021/01/08 08:03:59;;;;;;;60.05;33.35;;;;;;;0.65;94.77;99255.27;1762557;81;21114;-58
2021/01/08 08:06:31;;;;;;;78.45;42.67;;;;;;;0.67;94.68;99252.72;1774093;80;21113;-61
2021/01/08 08:09:01;;;;;;;42.78;25.45;;;;;;;0.67;94.63;99254.00;1774326;80;21098;-61
2021/01/08 08:11:32;;;;;;;63.92;34.75;;;;;;;0.68;94.65;99254.03;1774214;80;21390;-62
2021/01/08 08:14:00;;;;;;;68.00;37.15;;;;;;;0.73;94.68;99256.59;1762401;81;21126;-61
2021/01/08 08:16:38;;;;;;;45.25;27.60;;;;;;;0.76;94.68;99254.91;1774169;80;21122;-60
2021/01/08 08:19:09;;;;;;;36.83;25.43;;;;;;;0.78;94.36;99257.05;1762706;80;21575;-59
2021/01/08 08:21:38;;;;;;;36.08;23.98;;;;;;;0.78;94.38;99259.60;1785121;80;21112;-58
2021/01/08 08:24:06;;;;;;;59.40;37.13;;;;;;;0.80;94.28;99255.34;1791072;80;21215;-58
2021/01/08 08:26:35;;;;;;;38.67;25.30;;;;;;;0.81;94.10;99258.32;1772942;81;21058;-59
2021/01/08 08:29:06;;;;;;;40.50;24.57;;;;;;;0.85;94.11;99253.23;1790595;80;21551;-61
2021/01/08 08:31:50;;;;;;;36.50;24.50;;;;;;;0.86;93.85;99254.94;1773266;81;21066;-59
2021/01/08 08:34:31;;;;;;;36.93;23.05;;;;;;;0.85;93.74;99253.23;1791057;80;21133;-59
2021/01/08 08:37:09;;;;;;;37.67;24.32;;;;;;;0.87;93.75;99247.69;1790598;80;21769;-58
2021/01/08 08:39:37;;;;;;;43.30;27.27;;;;;;;0.87;93.77;99248.97;1790723;80;21570;-59
2021/01/08 08:42:05;;;;;;;46.23;28.32;;;;;;;0.89;93.87;99244.70;1790932;80;21053;-58
2021/01/08 08:44:42;;;;;;;40.55;24.92;;;;;;;0.93;93.86;99243.88;1790712;80;21054;-59
2021/01/08 08:47:11;;;;;;;39.65;25.05;;;;;;;1.01;93.95;99239.63;1773338;81;21113;-58
2021/01/08 08:49:40;;;;;;;45.83;26.05;;;;;;;1.05;93.51;99233.66;1790739;80;21201;-61
2021/01/08 08:52:08;;;;;;;44.58;27.00;;;;;;;1.06;93.34;99234.96;1773046;81;21129;-59
2021/01/08 08:54:38;;;;;;;38.20;24.12;;;;;;;1.08;93.48;99224.72;1790608;80;21172;-59
2021/01/08 08:57:06;;;;;;;39.92;24.10;;;;;;;1.14;93.34;99234.13;1790835;80;21156;-62
2021/01/08 08:59:44;;;;;;;43.15;24.67;;;;;;;1.16;93.15;99231.13;1773065;81;21058;-60
2021/01/08 09:02:25;;;;;;;38.95;25.75;;;;;;;1.16;93.00;99232.41;1790977;80;21366;-58
2021/01/08 09:04:57;;;;;;;44.03;26.35;;;;;;;1.21;93.03;99228.13;1773102;81;21133;-59
2021/01/08 09:07:55;;;;;;;37.42;23.42;;;;;;;1.28;93.03;99223.45;1790723;80;21053;-59
2021/01/08 09:10:30;;;;;;;38.28;23.57;;;;;;;1.32;92.77;99220.91;1773128;81;21050;-58
2021/01/08 09:13:17;;;;;;;40.65;24.57;;;;;;;1.35;92.43;99225.17;1772507;80;21117;-59
2021/01/08 09:16:05;;;;;;;;;;;;;;;1.36;92.40;99224.31;1775532;81;21409;-59
2021/01/08 09:18:47;;;;;;;43.17;24.55;;;;;;;1.42;92.52;99222.19;1773137;81;20223;-60
2021/01/08 09:21:23;;;;;;;42.10;26.60;;;;;;;1.42;92.18;99219.20;1790885;80;21515;-60
2021/01/08 09:23:54;;;;;;;49.90;31.00;;;;;;;1.44;92.22;99221.36;1773062;81;21073;-60
2021/01/08 09:26:22;;;;;;;55.05;34.30;;;;;;;1.44;91.92;99217.95;1790820;80;21052;-60
2021/01/08 09:28:52;;;;;;;63.52;36.73;;;;;;;1.40;91.84;99220.92;1743419;81;21402;-60
2021/01/08 09:31:21;;;;;;;71.87;39.20;;;;;;;1.41;91.95;99217.50;1790625;80;21117;-60
2021/01/08 09:33:57;;;;;;;66.50;36.53;;;;;;;1.43;91.77;99218.34;1790783;80;21160;-60
2021/01/08 09:36:32;;;;;;;37.60;22.95;;;;;;;1.44;91.71;99214.11;1773322;81;21050;-60
2021/01/08 09:39:06;;;;;;;92.22;51.13;;;;;;;1.47;91.45;99211.53;1790067;80;21129;-60
2021/01/08 09:41:38;;;;;;;48.50;29.50;;;;;;;1.53;91.27;99212.83;1790683;80;21445;-63
2021/01/08 09:44:12;;;;;;;50.25;28.47;;;;;;;1.59;91.05;99215.39;1773385;80;21621;-59
2021/01/08 09:46:57;;;;;;;100.27;51.33;;;;;;;1.62;90.47;99205.98;1790727;80;21146;-59
2021/01/08 09:49:26;;;;;;;44.75;27.50;;;;;;;1.62;90.11;99205.98;1791109;80;21045;-59
2021/01/08 09:52:01;;;;;;;49.53;29.60;;;;;;;1.65;89.99;99206.40;1790958;80;21215;-59
2021/01/08 09:54:48;;;;;;;39.38;25.32;;;;;;;1.68;89.97;99207.70;1791126;80;21577;-59
2021/01/08 09:57:43;;;;;;;;;;;;;;;1.73;89.50;99207.67;1793693;80;21164;-59
2021/01/08 10:00:11;;;;;;;37.35;23.27;;;;;;;1.71;88.57;99204.27;1790854;80;20229;-59
2021/01/08 10:02:42;;;;;;;35.28;24.15;;;;;;;1.63;88.46;99199.15;1786370;80;21479;-59
2021/01/08 10:05:35;;;;;;;32.75;21.62;;;;;;;1.61;88.62;99195.31;1841910;77;21113;-59
2021/01/08 10:08:04;;;;;;;46.18;27.35;;;;;;;1.65;88.49;99199.99;1773436;81;22242;-59
2021/01/08 10:10:38;;;;;;;38.50;23.90;;;;;;;1.68;88.79;99206.84;1791033;80;21089;-60
2021/01/08 10:13:18;;;;;;;34.27;21.90;;;;;;;1.71;88.61;99202.55;1773398;81;21157;-59
2021/01/08 10:15:48;;;;;;;35.28;23.75;;;;;;;1.78;88.69;99202.13;1790814;80;21132;-60
2021/01/08 10:18:28;;;;;;;35.25;23.73;;;;;;;1.83;88.50;99204.27;1841642;77;21150;-60
2021/01/08 10:21:13;;;;;;;39.27;24.50;;;;;;;1.85;88.19;99204.69;1772115;81;21366;-60
2021/01/08 10:23:45;;;;;;;31.05;20.57;;;;;;;1.87;87.73;99204.25;1774113;80;21149;-60
2021/01/08 10:26:16;;;;;;;30.05;20.68;;;;;;;1.83;87.14;99201.70;1762558;81;21066;-59
2021/01/08 10:28:55;;;;;;;27.00;19.05;;;;;;;1.76;87.05;99197.44;1774491;80;21495;-59
2021/01/08 10:31:23;;;;;;;28.67;19.70;;;;;;;1.70;87.12;99199.57;1774490;80;21057;-59
2021/01/08 10:33:52;;;;;;;26.23;18.37;;;;;;;1.66;87.07;99194.01;1774127;80;21195;-59
2021/01/08 10:36:20;;;;;;;33.25;23.67;;;;;;;1.63;86.84;99202.99;1774412;80;21169;-59
2021/01/08 10:38:47;;;;;;;30.08;21.23;;;;;;;1.61;86.93;99203.42;1762525;81;21157;-59
2021/01/08 10:41:16;;;;;;;40.83;26.80;;;;;;;1.58;86.88;99203.41;1774374;80;21066;-59
2021/01/08 10:43:45;;;;;;;38.08;24.60;;;;;;;1.55;87.03;99209.40;1762762;81;21065;-59
2021/01/08 10:46:14;;;;;;;35.60;23.07;;;;;;;1.58;87.33;99202.13;1774445;80;21373;-59
2021/01/08 10:48:43;;;;;;;31.45;20.92;;;;;;;1.63;87.31;99204.27;1774211;80;21530;-59
2021/01/08 10:51:11;;;;;;;37.78;24.87;;;;;;;1.68;87.26;99205.14;1774286;80;21075;-59
2021/01/08 10:53:39;;;;;;;46.35;33.65;;;;;;;1.72;87.08;99202.98;1762540;81;21125;-59
2021/01/08 10:56:06;;;;;;;39.03;23.83;;;;;;;1.75;87.12;99208.55;1774130;80;21145;-60
2021/01/08 10:58:34;;;;;;;32.83;20.77;;;;;;;1.74;86.73;99208.98;1762729;81;21371;-59
2021/01/08 11:01:03;;;;;;;29.05;19.55;;;;;;;1.74;86.47;99211.55;1774117;80;21185;-59
2021/01/08 11:03:31;;;;;;;36.85;26.25;;;;;;;1.70;86.39;99212.38;1774272;80;21579;-59
2021/01/08 11:05:59;;;;;;;33.58;20.57;;;;;;;1.64;86.39;99213.66;1762559;81;21420;-59
2021/01/08 11:08:26;;;;;;;40.35;26.20;;;;;;;1.63;86.47;99219.22;1774404;80;21196;-59
2021/01/08 11:10:54;;;;;;;33.53;25.30;;;;;;;1.65;86.77;99211.52;1774303;80;21200;-59
2021/01/08 11:13:21;;;;;;;27.22;19.07;;;;;;;1.63;86.81;99216.66;1762615;81;21086;-59
2021/01/08 11:15:49;;;;;;;27.22;18.55;;;;;;;1.63;87.19;99209.40;1774153;80;21138;-59
2021/01/08 11:18:17;;;;;;;24.23;16.23;;;;;;;1.63;87.03;99211.53;1762537;81;21134;-59
2021/01/08 11:20:49;;;;;;;22.40;16.12;;;;;;;1.61;86.22;99209.41;1774357;80;21074;-59
2021/01/08 11:23:16;;;;;;;26.57;17.42;;;;;;;1.58;86.14;99220.06;1762592;81;21413;-59
2021/01/08 11:25:45;;;;;;;26.68;16.57;;;;;;;1.56;86.47;99217.94;1773979;80;21074;-60
2021/01/08 11:28:12;;;;;;;26.05;17.87;;;;;;;1.60;86.80;99220.94;1762455;80;21070;-60
2021/01/08 11:30:40;;;;;;;28.00;18.60;;;;;;;1.60;86.94;99218.38;1774234;80;21141;-61
2021/01/08 11:33:08;;;;;;;34.75;22.25;;;;;;;1.58;86.87;99214.94;1762423;80;21150;-59
2021/01/08 11:35:37;;;;;;;31.62;21.95;;;;;;;1.59;87.05;99212.41;1774424;80;21272;-59
2021/01/08 11:38:05;;;;;;;30.25;20.30;;;;;;;1.60;87.05;99206.42;1774258;80;21117;-59
2021/01/08 11:40:33;;;;;;;35.55;21.48;;;;;;;1.62;86.84;99214.09;1762656;81;21058;-59
2021/01/08 11:43:03;;;;;;;42.27;30.08;;;;;;;1.63;86.91;99215.37;1774086;80;21133;-59